Williams Acres, New Mexico
Current Conditions -  °F | °C
As of 12:53 AM on Friday 19 Dec 2014 (Local Time) from KGUP Reporting Station
Haze Haze  
Wind Chill: 24°   Ceiling: 200
Heat Index: 24°   Visibility: 0.25mi
Dew Point: 19°   Wind: 0mph
Humidity: 81%   Direction: NA
Pressure: 30.19"   Gusts: NA
Location:  35.4315°N, 108.724°W
Report Text: KGUP 190753Z AUTO 00000KT 1/4SM HZ VV002 M04/M07 A3019 RMK AO2 SLP249 I1000 T10441072 $
Loading
Personal Weather Stations






























Interactive Weather Map New forecast layout! Learn more

10-Day Weather Forecast

Advertisements
Track Severe Weather on mobile